AXB1357 VOHS-VABB
Flight info
| Callsign | AXB1357 |
|---|---|
| Flight time | 1h 6m |
| Altitude | 34000 |
| Route | TAMIV7 APUSU W18 OPAKA EMRAK2A |
| Aircraft | A320/M-SDE3FGHIRWY/LB1 |
Departure
| Time | 2026-05-08 02:40 |
|---|---|
| Airport | Rajiv Gandhi International Airport (VOHS) |
Arrival
| Time | 2026-05-08 03:47 |
|---|---|
| Airport | Chhatrapati Shivaji Maharaj International Airport (VABB) |
| Time | Latitude | Longitude | Altitude | Speed | Heading |
|---|---|---|---|---|---|
| 2026-05-08 02:25 | 17.23427 | 78.42812 | 2007 ft | 0 kts | 0° |
| 2026-05-08 02:32 | 17.23417 | 78.42811 | 2007 ft | 2 kts | 360° |
| 2026-05-08 02:33 | 17.23402 | 78.42811 | 2007 ft | 2 kts | 0° |
| 2026-05-08 02:33 | 17.23387 | 78.42811 | 2007 ft | 2 kts | 360° |
| 2026-05-08 02:33 | 17.23372 | 78.42811 | 2007 ft | 2 kts | 360° |
| 2026-05-08 02:33 | 17.23362 | 78.42811 | 2007 ft | 2 kts | 358° |
| 2026-05-08 02:34 | 17.23348 | 78.42815 | 2008 ft | 2 kts | 331° |
| 2026-05-08 02:34 | 17.23336 | 78.42824 | 2008 ft | 2 kts | 310° |
| 2026-05-08 02:34 | 17.23328 | 78.42838 | 2009 ft | 2 kts | 289° |
| 2026-05-08 02:34 | 17.23325 | 78.42850 | 2010 ft | 0 kts | 272° |
| 2026-05-08 02:35 | 17.23326 | 78.42857 | 2011 ft | 0 kts | 269° |
| 2026-05-08 02:36 | 17.23326 | 78.42841 | 2010 ft | 5 kts | 271° |
| 2026-05-08 02:36 | 17.23326 | 78.42799 | 2006 ft | 10 kts | 270° |
| 2026-05-08 02:36 | 17.23256 | 78.42730 | 2002 ft | 14 kts | 179° |
| 2026-05-08 02:37 | 17.23144 | 78.42732 | 1997 ft | 17 kts | 179° |
| 2026-05-08 02:37 | 17.23078 | 78.42635 | 1992 ft | 20 kts | 270° |
| 2026-05-08 02:37 | 17.23076 | 78.42476 | 1981 ft | 24 kts | 268° |
| 2026-05-08 02:37 | 17.23070 | 78.42284 | 1972 ft | 27 kts | 274° |
| 2026-05-08 02:38 | 17.23069 | 78.42084 | 1964 ft | 28 kts | 266° |
| 2026-05-08 02:38 | 17.23064 | 78.41875 | 1962 ft | 28 kts | 271° |
| 2026-05-08 02:38 | 17.23064 | 78.41676 | 1964 ft | 26 kts | 268° |
| 2026-05-08 02:38 | 17.23057 | 78.41489 | 1967 ft | 24 kts | 268° |
| 2026-05-08 02:39 | 17.23016 | 78.41339 | 1972 ft | 20 kts | 201° |
| 2026-05-08 02:39 | 17.22895 | 78.41344 | 1979 ft | 15 kts | 165° |
| 2026-05-08 02:39 | 17.22857 | 78.41433 | 1978 ft | 15 kts | 89° |
| 2026-05-08 02:39 | 17.22857 | 78.41689 | 1972 ft | 72 kts | 91° |
| 2026-05-08 02:40 | 17.22868 | 78.42500 | 1983 ft | 146 kts | 89° |
| 2026-05-08 02:40 | 17.22876 | 78.43289 | 2110 ft | 175 kts | 91° |
| 2026-05-08 02:40 | 17.22880 | 78.45038 | 3044 ft | 190 kts | 91° |
| 2026-05-08 02:40 | 17.22892 | 78.46350 | 3875 ft | 179 kts | 90° |
| 2026-05-08 02:41 | 17.22917 | 78.47694 | 4280 ft | 192 kts | 89° |
| 2026-05-08 02:41 | 17.22943 | 78.49136 | 4620 ft | 208 kts | 89° |
| 2026-05-08 02:41 | 17.23008 | 78.50737 | 4878 ft | 232 kts | 80° |
| 2026-05-08 02:41 | 17.23634 | 78.52358 | 5249 ft | 252 kts | 53° |
| 2026-05-08 02:42 | 17.24997 | 78.53583 | 5627 ft | 272 kts | 26° |
| 2026-05-08 02:42 | 17.26845 | 78.54000 | 6219 ft | 282 kts | 1° |
| 2026-05-08 02:42 | 17.28815 | 78.53950 | 7030 ft | 282 kts | 359° |
| 2026-05-08 02:42 | 17.30763 | 78.53871 | 7766 ft | 285 kts | 359° |
| 2026-05-08 02:43 | 17.32741 | 78.53635 | 8484 ft | 289 kts | 343° |
| 2026-05-08 02:43 | 17.34483 | 78.52628 | 9189 ft | 293 kts | 317° |
| 2026-05-08 02:43 | 17.35674 | 78.50896 | 9903 ft | 297 kts | 292° |
| 2026-05-08 02:43 | 17.36049 | 78.48782 | 10502 ft | 305 kts | 267° |
| 2026-05-08 02:44 | 17.35486 | 78.46612 | 10810 ft | 322 kts | 240° |
| 2026-05-08 02:44 | 17.34214 | 78.44639 | 11379 ft | 328 kts | 238° |
| 2026-05-08 02:44 | 17.33349 | 78.42440 | 11985 ft | 331 kts | 263° |
| 2026-05-08 02:44 | 17.33370 | 78.40039 | 12682 ft | 331 kts | 276° |
| 2026-05-08 02:45 | 17.33644 | 78.37649 | 13323 ft | 334 kts | 278° |
| 2026-05-08 02:45 | 17.33967 | 78.35244 | 13924 ft | 338 kts | 279° |
| 2026-05-08 02:45 | 17.34302 | 78.32789 | 14542 ft | 341 kts | 278° |
| 2026-05-08 02:45 | 17.34633 | 78.30354 | 15142 ft | 344 kts | 278° |
| 2026-05-08 02:46 | 17.34968 | 78.27859 | 15694 ft | 347 kts | 278° |
| 2026-05-08 02:46 | 17.35303 | 78.25347 | 15966 ft | 349 kts | 278° |
| 2026-05-08 02:46 | 17.35636 | 78.22833 | 15985 ft | 348 kts | 278° |
| 2026-05-08 02:46 | 17.35968 | 78.20325 | 15990 ft | 349 kts | 278° |
| 2026-05-08 02:47 | 17.36303 | 78.17815 | 16242 ft | 355 kts | 278° |
| 2026-05-08 02:47 | 17.36640 | 78.15279 | 16907 ft | 355 kts | 278° |
| 2026-05-08 02:47 | 17.36981 | 78.12702 | 17535 ft | 356 kts | 278° |
| 2026-05-08 02:47 | 17.37317 | 78.10150 | 18080 ft | 359 kts | 278° |
| 2026-05-08 02:48 | 17.37657 | 78.07558 | 18617 ft | 362 kts | 278° |
| 2026-05-08 02:48 | 17.38002 | 78.04929 | 19148 ft | 364 kts | 278° |
| 2026-05-08 02:48 | 17.38346 | 78.02305 | 19660 ft | 367 kts | 278° |
| 2026-05-08 02:48 | 17.38691 | 77.99658 | 20164 ft | 370 kts | 278° |
| 2026-05-08 02:49 | 17.39038 | 77.96999 | 20658 ft | 373 kts | 278° |
| 2026-05-08 02:49 | 17.39390 | 77.94301 | 21146 ft | 375 kts | 278° |
| 2026-05-08 02:49 | 17.39744 | 77.91584 | 21623 ft | 378 kts | 278° |
| 2026-05-08 02:49 | 17.40094 | 77.88886 | 22084 ft | 380 kts | 278° |
| 2026-05-08 02:50 | 17.40455 | 77.86108 | 22545 ft | 383 kts | 278° |
| 2026-05-08 02:50 | 17.40812 | 77.83354 | 22989 ft | 385 kts | 278° |
| 2026-05-08 02:50 | 17.41171 | 77.80588 | 23422 ft | 388 kts | 278° |
| 2026-05-08 02:50 | 17.41534 | 77.77779 | 23850 ft | 390 kts | 278° |
| 2026-05-08 02:51 | 17.41900 | 77.74949 | 24270 ft | 393 kts | 278° |
| 2026-05-08 02:51 | 17.42266 | 77.72117 | 24676 ft | 395 kts | 278° |
| 2026-05-08 02:51 | 17.42635 | 77.69260 | 25074 ft | 398 kts | 278° |
| 2026-05-08 02:51 | 17.43001 | 77.66414 | 25460 ft | 400 kts | 278° |
| 2026-05-08 02:52 | 17.43377 | 77.63495 | 25846 ft | 402 kts | 278° |
| 2026-05-08 02:52 | 17.43749 | 77.60603 | 26217 ft | 404 kts | 278° |
| 2026-05-08 02:52 | 17.44122 | 77.57691 | 26580 ft | 406 kts | 278° |
| 2026-05-08 02:52 | 17.44500 | 77.54745 | 26938 ft | 409 kts | 278° |
| 2026-05-08 02:53 | 17.44876 | 77.51811 | 27283 ft | 411 kts | 278° |
| 2026-05-08 02:53 | 17.45258 | 77.48827 | 27624 ft | 413 kts | 278° |
| 2026-05-08 02:53 | 17.45634 | 77.45885 | 27949 ft | 415 kts | 278° |
| 2026-05-08 02:53 | 17.46019 | 77.42870 | 28274 ft | 417 kts | 278° |
| 2026-05-08 02:54 | 17.46401 | 77.39870 | 28589 ft | 419 kts | 278° |
| 2026-05-08 02:54 | 17.46785 | 77.36854 | 28895 ft | 421 kts | 278° |
| 2026-05-08 02:54 | 17.47173 | 77.33800 | 29193 ft | 423 kts | 278° |
| 2026-05-08 02:54 | 17.47559 | 77.30765 | 29480 ft | 424 kts | 278° |
| 2026-05-08 02:55 | 17.47952 | 77.27662 | 29767 ft | 426 kts | 278° |
| 2026-05-08 02:55 | 17.48598 | 77.22557 | 30219 ft | 429 kts | 278° |
| 2026-05-08 02:55 | 17.49120 | 77.18427 | 30570 ft | 431 kts | 278° |
| 2026-05-08 02:56 | 17.49515 | 77.15300 | 30826 ft | 433 kts | 278° |
| 2026-05-08 02:56 | 17.49913 | 77.12140 | 31078 ft | 435 kts | 278° |
| 2026-05-08 02:56 | 17.50306 | 77.09013 | 31320 ft | 436 kts | 278° |
| 2026-05-08 02:56 | 17.50569 | 77.06920 | 31478 ft | 437 kts | 278° |
| 2026-05-08 02:57 | 17.51099 | 77.02702 | 31789 ft | 439 kts | 278° |
| 2026-05-08 02:57 | 17.51494 | 76.99547 | 31994 ft | 441 kts | 278° |
| 2026-05-08 02:57 | 17.51894 | 76.96351 | 32173 ft | 444 kts | 278° |
| 2026-05-08 02:57 | 17.52294 | 76.93157 | 32343 ft | 446 kts | 277° |
| 2026-05-08 02:58 | 17.52563 | 76.91007 | 32456 ft | 448 kts | 277° |
| 2026-05-08 02:58 | 17.53106 | 76.86648 | 32689 ft | 451 kts | 277° |
| 2026-05-08 02:58 | 17.53508 | 76.83422 | 32867 ft | 453 kts | 277° |
| 2026-05-08 02:58 | 17.53782 | 76.81215 | 32992 ft | 454 kts | 277° |
| 2026-05-08 02:59 | 17.54407 | 76.76882 | 33238 ft | 456 kts | 282° |
| 2026-05-08 02:59 | 17.55307 | 76.73708 | 33410 ft | 458 kts | 290° |
| 2026-05-08 02:59 | 17.56657 | 76.70677 | 33576 ft | 459 kts | 299° |
| 2026-05-08 02:59 | 17.58418 | 76.67893 | 33732 ft | 461 kts | 308° |
| 2026-05-08 03:00 | 17.60572 | 76.65391 | 33882 ft | 462 kts | 317° |
| 2026-05-08 03:00 | 17.65816 | 76.61501 | 33985 ft | 463 kts | 332° |
| 2026-05-08 03:01 | 17.70552 | 76.58939 | 33986 ft | 462 kts | 334° |
| 2026-05-08 03:01 | 17.76281 | 76.55881 | 33987 ft | 463 kts | 333° |
| 2026-05-08 03:02 | 17.81992 | 76.52790 | 33986 ft | 463 kts | 333° |
| 2026-05-08 03:02 | 17.88621 | 76.49178 | 33982 ft | 463 kts | 333° |
| 2026-05-08 03:03 | 17.93377 | 76.46581 | 33977 ft | 463 kts | 333° |
| 2026-05-08 03:03 | 18.00008 | 76.42959 | 33966 ft | 463 kts | 333° |
| 2026-05-08 03:04 | 18.05759 | 76.39908 | 33959 ft | 463 kts | 334° |
| 2026-05-08 03:04 | 18.11496 | 76.36897 | 33951 ft | 463 kts | 334° |
| 2026-05-08 03:05 | 18.17242 | 76.33872 | 33943 ft | 463 kts | 334° |
| 2026-05-08 03:05 | 18.22963 | 76.30855 | 33936 ft | 463 kts | 334° |
| 2026-05-08 03:06 | 18.28692 | 76.27828 | 33933 ft | 463 kts | 334° |
| 2026-05-08 03:06 | 18.34437 | 76.24791 | 33932 ft | 463 kts | 334° |
| 2026-05-08 03:07 | 18.40154 | 76.21766 | 33932 ft | 463 kts | 334° |
| 2026-05-08 03:07 | 18.45896 | 76.18726 | 33932 ft | 463 kts | 334° |
| 2026-05-08 03:08 | 18.51614 | 76.15695 | 33932 ft | 463 kts | 334° |
| 2026-05-08 03:08 | 18.57321 | 76.12669 | 33932 ft | 463 kts | 334° |
| 2026-05-08 03:09 | 18.63078 | 76.09613 | 33932 ft | 463 kts | 334° |
| 2026-05-08 03:09 | 18.67826 | 76.07091 | 33932 ft | 463 kts | 334° |
| 2026-05-08 03:10 | 18.73577 | 76.04035 | 33932 ft | 463 kts | 334° |
| 2026-05-08 03:10 | 18.80240 | 76.00491 | 33932 ft | 463 kts | 334° |
| 2026-05-08 03:11 | 18.85976 | 75.97437 | 33932 ft | 463 kts | 334° |
| 2026-05-08 03:11 | 18.90746 | 75.94898 | 33932 ft | 463 kts | 333° |
| 2026-05-08 03:12 | 18.96471 | 75.91855 | 33934 ft | 460 kts | 332° |
| 2026-05-08 03:12 | 19.03035 | 75.88350 | 33935 ft | 453 kts | 332° |
| 2026-05-08 03:13 | 19.08607 | 75.85368 | 33932 ft | 449 kts | 332° |
| 2026-05-08 03:13 | 19.14168 | 75.82394 | 33932 ft | 448 kts | 332° |
| 2026-05-08 03:14 | 19.19718 | 75.79424 | 33932 ft | 448 kts | 332° |
| 2026-05-08 03:14 | 19.25239 | 75.76469 | 33932 ft | 448 kts | 332° |
| 2026-05-08 03:15 | 19.29882 | 75.73981 | 33932 ft | 448 kts | 332° |
| 2026-05-08 03:15 | 19.35408 | 75.71017 | 33932 ft | 448 kts | 332° |
| 2026-05-08 03:16 | 19.41791 | 75.67370 | 33929 ft | 447 kts | 324° |
| 2026-05-08 03:16 | 19.45668 | 75.63786 | 33931 ft | 445 kts | 311° |
| 2026-05-08 03:16 | 19.48104 | 75.60322 | 33932 ft | 444 kts | 300° |
| 2026-05-08 03:17 | 19.49521 | 75.57410 | 33932 ft | 443 kts | 292° |
| 2026-05-08 03:17 | 19.50979 | 75.52196 | 33932 ft | 443 kts | 279° |
| 2026-05-08 03:18 | 19.51801 | 75.44666 | 33936 ft | 443 kts | 276° |
| 2026-05-08 03:18 | 19.52422 | 75.38203 | 33946 ft | 443 kts | 276° |
| 2026-05-08 03:19 | 19.53059 | 75.31722 | 33952 ft | 443 kts | 275° |
| 2026-05-08 03:19 | 19.53599 | 75.26299 | 33955 ft | 443 kts | 276° |
| 2026-05-08 03:20 | 19.54242 | 75.19840 | 33956 ft | 443 kts | 276° |
| 2026-05-08 03:20 | 19.54994 | 75.12275 | 33772 ft | 442 kts | 276° |
| 2026-05-08 03:20 | 19.55312 | 75.09072 | 33523 ft | 440 kts | 275° |
| 2026-05-08 03:21 | 19.55526 | 75.06918 | 33356 ft | 439 kts | 275° |
| 2026-05-08 03:21 | 19.55947 | 75.02663 | 33023 ft | 437 kts | 275° |
| 2026-05-08 03:21 | 19.56161 | 75.00506 | 32853 ft | 437 kts | 275° |
| 2026-05-08 03:21 | 19.56579 | 74.96281 | 32499 ft | 436 kts | 275° |
| 2026-05-08 03:22 | 19.56892 | 74.93094 | 32149 ft | 434 kts | 275° |
| 2026-05-08 03:22 | 19.57100 | 74.90974 | 31949 ft | 434 kts | 275° |
| 2026-05-08 03:22 | 19.57512 | 74.86755 | 31407 ft | 431 kts | 275° |
| 2026-05-08 03:22 | 19.57820 | 74.83593 | 30952 ft | 428 kts | 275° |
| 2026-05-08 03:23 | 19.58123 | 74.80473 | 30489 ft | 424 kts | 275° |
| 2026-05-08 03:23 | 19.58422 | 74.77392 | 30027 ft | 421 kts | 275° |
| 2026-05-08 03:23 | 19.58719 | 74.74334 | 29565 ft | 417 kts | 275° |
| 2026-05-08 03:23 | 19.59012 | 74.71300 | 29105 ft | 414 kts | 275° |
| 2026-05-08 03:24 | 19.59305 | 74.68272 | 28643 ft | 411 kts | 275° |
| 2026-05-08 03:24 | 19.59594 | 74.65269 | 28184 ft | 408 kts | 275° |
| 2026-05-08 03:24 | 19.59782 | 74.63314 | 27884 ft | 405 kts | 275° |
| 2026-05-08 03:24 | 19.60164 | 74.59356 | 27277 ft | 401 kts | 275° |
| 2026-05-08 03:25 | 19.60303 | 74.56441 | 26822 ft | 397 kts | 268° |
| 2026-05-08 03:25 | 19.60077 | 74.53558 | 26372 ft | 393 kts | 260° |
| 2026-05-08 03:25 | 19.59497 | 74.50752 | 25926 ft | 389 kts | 254° |
| 2026-05-08 03:25 | 19.58766 | 74.48013 | 25478 ft | 386 kts | 253° |
| 2026-05-08 03:26 | 19.58264 | 74.46204 | 25183 ft | 385 kts | 252° |
| 2026-05-08 03:26 | 19.57258 | 74.42575 | 24589 ft | 381 kts | 253° |
| 2026-05-08 03:26 | 19.56518 | 74.39889 | 24150 ft | 379 kts | 253° |
| 2026-05-08 03:26 | 19.56035 | 74.38130 | 23862 ft | 377 kts | 253° |
| 2026-05-08 03:27 | 19.55303 | 74.35458 | 23423 ft | 375 kts | 253° |
| 2026-05-08 03:27 | 19.54335 | 74.31910 | 22841 ft | 372 kts | 253° |
| 2026-05-08 03:27 | 19.53619 | 74.29288 | 22410 ft | 370 kts | 253° |
| 2026-05-08 03:27 | 19.52910 | 74.26689 | 21982 ft | 368 kts | 253° |
| 2026-05-08 03:28 | 19.52208 | 74.24120 | 21557 ft | 367 kts | 253° |
| 2026-05-08 03:28 | 19.51499 | 74.21523 | 21128 ft | 365 kts | 253° |
| 2026-05-08 03:28 | 19.50797 | 74.18953 | 20702 ft | 363 kts | 253° |
| 2026-05-08 03:28 | 19.50327 | 74.17234 | 20417 ft | 362 kts | 253° |
| 2026-05-08 03:29 | 19.49403 | 74.13857 | 19856 ft | 359 kts | 253° |
| 2026-05-08 03:29 | 19.48942 | 74.12175 | 19576 ft | 358 kts | 253° |
| 2026-05-08 03:29 | 19.48254 | 74.09661 | 19157 ft | 357 kts | 253° |
| 2026-05-08 03:29 | 19.47336 | 74.06311 | 18596 ft | 355 kts | 253° |
| 2026-05-08 03:30 | 19.46189 | 74.02132 | 17892 ft | 352 kts | 253° |
| 2026-05-08 03:30 | 19.44605 | 73.96365 | 16919 ft | 349 kts | 253° |
| 2026-05-08 03:31 | 19.43482 | 73.92278 | 16230 ft | 346 kts | 253° |
| 2026-05-08 03:31 | 19.41819 | 73.86842 | 15894 ft | 321 kts | 246° |
| 2026-05-08 03:32 | 19.40861 | 73.84724 | 15669 ft | 317 kts | 242° |
| 2026-05-08 03:32 | 19.40174 | 73.83369 | 15396 ft | 317 kts | 241° |
| 2026-05-08 03:32 | 19.39105 | 73.81306 | 15006 ft | 317 kts | 241° |
| 2026-05-08 03:32 | 19.37700 | 73.78603 | 14514 ft | 315 kts | 241° |
| 2026-05-08 03:33 | 19.37008 | 73.77274 | 14274 ft | 314 kts | 241° |
| 2026-05-08 03:33 | 19.35955 | 73.75248 | 13911 ft | 312 kts | 241° |
| 2026-05-08 03:33 | 19.34923 | 73.73261 | 13554 ft | 310 kts | 241° |
| 2026-05-08 03:33 | 19.33541 | 73.70589 | 13076 ft | 307 kts | 241° |
| 2026-05-08 03:34 | 19.32866 | 73.69284 | 12841 ft | 306 kts | 241° |
| 2026-05-08 03:34 | 19.31853 | 73.67321 | 12486 ft | 304 kts | 241° |
| 2026-05-08 03:34 | 19.30507 | 73.64714 | 12012 ft | 302 kts | 241° |
| 2026-05-08 03:34 | 19.29834 | 73.63409 | 11772 ft | 300 kts | 241° |
| 2026-05-08 03:35 | 19.28509 | 73.60844 | 11293 ft | 298 kts | 241° |
| 2026-05-08 03:35 | 19.27515 | 73.58918 | 10930 ft | 297 kts | 241° |
| 2026-05-08 03:35 | 19.26533 | 73.57018 | 10569 ft | 295 kts | 241° |
| 2026-05-08 03:35 | 19.25596 | 73.55203 | 10224 ft | 293 kts | 241° |
| 2026-05-08 03:36 | 19.24618 | 73.53310 | 9865 ft | 292 kts | 241° |
| 2026-05-08 03:36 | 19.23652 | 73.51442 | 9520 ft | 290 kts | 241° |
| 2026-05-08 03:36 | 19.22706 | 73.49616 | 9327 ft | 282 kts | 241° |
| 2026-05-08 03:36 | 19.21779 | 73.47824 | 9236 ft | 270 kts | 241° |
| 2026-05-08 03:37 | 19.20940 | 73.46096 | 9008 ft | 266 kts | 246° |
| 2026-05-08 03:37 | 19.20258 | 73.44262 | 8680 ft | 265 kts | 252° |
| 2026-05-08 03:37 | 19.19776 | 73.42406 | 8367 ft | 264 kts | 257° |
| 2026-05-08 03:37 | 19.19370 | 73.40526 | 8056 ft | 263 kts | 255° |
| 2026-05-08 03:38 | 19.18862 | 73.38665 | 7745 ft | 262 kts | 253° |
| 2026-05-08 03:38 | 19.18323 | 73.36841 | 7438 ft | 261 kts | 252° |
| 2026-05-08 03:38 | 19.17774 | 73.35017 | 7134 ft | 260 kts | 252° |
| 2026-05-08 03:38 | 19.17222 | 73.33195 | 6830 ft | 258 kts | 252° |
| 2026-05-08 03:39 | 19.16673 | 73.31395 | 6530 ft | 257 kts | 251° |
| 2026-05-08 03:39 | 19.16128 | 73.29611 | 6234 ft | 256 kts | 251° |
| 2026-05-08 03:39 | 19.15582 | 73.27822 | 5936 ft | 255 kts | 251° |
| 2026-05-08 03:39 | 19.15034 | 73.26030 | 5638 ft | 254 kts | 251° |
| 2026-05-08 03:40 | 19.14496 | 73.24271 | 5345 ft | 253 kts | 251° |
| 2026-05-08 03:40 | 19.13959 | 73.22520 | 5053 ft | 252 kts | 251° |
| 2026-05-08 03:40 | 19.13418 | 73.20753 | 4756 ft | 251 kts | 251° |
| 2026-05-08 03:40 | 19.12898 | 73.19054 | 4472 ft | 250 kts | 251° |
| 2026-05-08 03:41 | 19.12359 | 73.17297 | 4180 ft | 249 kts | 251° |
| 2026-05-08 03:41 | 19.11827 | 73.15562 | 3890 ft | 248 kts | 251° |
| 2026-05-08 03:41 | 19.11302 | 73.13851 | 3604 ft | 247 kts | 251° |
| 2026-05-08 03:41 | 19.10771 | 73.12120 | 3316 ft | 246 kts | 251° |
| 2026-05-08 03:42 | 19.10241 | 73.10394 | 3026 ft | 244 kts | 251° |
| 2026-05-08 03:42 | 19.09729 | 73.08724 | 2858 ft | 236 kts | 251° |
| 2026-05-08 03:42 | 19.09276 | 73.07123 | 2841 ft | 222 kts | 257° |
| 2026-05-08 03:42 | 19.09092 | 73.05551 | 2910 ft | 208 kts | 267° |
| 2026-05-08 03:43 | 19.09078 | 73.04081 | 2888 ft | 192 kts | 270° |
| 2026-05-08 03:43 | 19.09088 | 73.02737 | 2838 ft | 174 kts | 269° |
| 2026-05-08 03:43 | 19.09086 | 73.01487 | 2855 ft | 167 kts | 269° |
| 2026-05-08 03:43 | 19.09072 | 73.00267 | 2714 ft | 169 kts | 268° |
| 2026-05-08 03:44 | 19.09053 | 72.99007 | 2271 ft | 172 kts | 268° |
| 2026-05-08 03:44 | 19.09033 | 72.97762 | 1913 ft | 170 kts | 268° |
| 2026-05-08 03:44 | 19.09014 | 72.96546 | 1680 ft | 160 kts | 268° |
| 2026-05-08 03:44 | 19.08997 | 72.95409 | 1456 ft | 152 kts | 268° |
| 2026-05-08 03:45 | 19.08981 | 72.94292 | 1265 ft | 151 kts | 268° |
| 2026-05-08 03:45 | 19.08964 | 72.93178 | 1072 ft | 150 kts | 268° |
| 2026-05-08 03:45 | 19.08948 | 72.92078 | 877 ft | 150 kts | 268° |
| 2026-05-08 03:45 | 19.08931 | 72.90981 | 677 ft | 150 kts | 268° |
| 2026-05-08 03:46 | 19.08916 | 72.89887 | 474 ft | 149 kts | 268° |
| 2026-05-08 03:46 | 19.08900 | 72.88787 | 272 ft | 148 kts | 268° |
| 2026-05-08 03:46 | 19.08879 | 72.87718 | 85 ft | 144 kts | 268° |
| 2026-05-08 03:46 | 19.08869 | 72.86716 | 31 ft | 123 kts | 268° |
| 2026-05-08 03:47 | 19.08858 | 72.85948 | 24 ft | 81 kts | 270° |
| 2026-05-08 03:47 | 19.08862 | 72.85532 | 23 ft | 38 kts | 279° |
| 2026-05-08 03:47 | 19.08925 | 72.85295 | 24 ft | 22 kts | 296° |
| 2026-05-08 03:47 | 19.09019 | 72.85281 | 27 ft | 17 kts | 74° |
| 2026-05-08 03:48 | 19.09064 | 72.85359 | 28 ft | 13 kts | 27° |
| 2026-05-08 03:48 | 19.09051 | 72.85443 | 26 ft | 14 kts | 118° |
| 2026-05-08 03:48 | 19.09025 | 72.85552 | 25 ft | 15 kts | 92° |
| 2026-05-08 03:48 | 19.09026 | 72.85666 | 26 ft | 15 kts | 89° |
| 2026-05-08 03:49 | 19.09028 | 72.85773 | 28 ft | 14 kts | 89° |
| 2026-05-08 03:49 | 19.09029 | 72.85871 | 29 ft | 13 kts | 89° |
| 2026-05-08 03:49 | 19.09031 | 72.85973 | 28 ft | 14 kts | 89° |
| 2026-05-08 03:49 | 19.09032 | 72.86076 | 29 ft | 14 kts | 89° |
| 2026-05-08 03:50 | 19.09033 | 72.86186 | 29 ft | 15 kts | 89° |
| 2026-05-08 03:50 | 19.09035 | 72.86305 | 28 ft | 16 kts | 89° |
| 2026-05-08 03:50 | 19.09037 | 72.86431 | 29 ft | 17 kts | 89° |
| 2026-05-08 03:50 | 19.09040 | 72.86556 | 31 ft | 16 kts | 89° |
| 2026-05-08 03:51 | 19.09041 | 72.86679 | 32 ft | 16 kts | 90° |
| 2026-05-08 03:51 | 19.09067 | 72.86789 | 33 ft | 15 kts | 43° |
| 2026-05-08 03:51 | 19.09128 | 72.86879 | 33 ft | 15 kts | 80° |
| 2026-05-08 03:51 | 19.09132 | 72.86996 | 30 ft | 11 kts | 89° |
| 2026-05-08 03:52 | 19.09133 | 72.87052 | 30 ft | 6 kts | 79° |
| 2026-05-08 03:52 | 19.09166 | 72.87080 | 31 ft | 6 kts | 14° |
| 2026-05-08 03:52 | 19.09195 | 72.87083 | 33 ft | 1 kts | 1° |
| 2026-05-08 03:52 | 19.09208 | 72.87083 | 33 ft | 2 kts | 1° |
| 2026-05-08 03:53 | 19.09232 | 72.87096 | 34 ft | 4 kts | 71° |
| 2026-05-08 03:53 | 19.09234 | 72.87136 | 34 ft | 5 kts | 88° |
| 2026-05-08 03:53 | 19.09235 | 72.87183 | 34 ft | 6 kts | 89° |
| 2026-05-08 03:53 | 19.09236 | 72.87233 | 34 ft | 7 kts | 90° |
| 2026-05-08 03:54 | 19.09236 | 72.87299 | 35 ft | 9 kts | 89° |
| 2026-05-08 03:54 | 19.09263 | 72.87359 | 36 ft | 8 kts | 25° |
| 2026-05-08 03:54 | 19.09314 | 72.87364 | 39 ft | 6 kts | 359° |
| 2026-05-08 03:54 | 19.09345 | 72.87358 | 40 ft | 3 kts | 334° |
| 2026-05-08 03:55 | 19.09359 | 72.87344 | 41 ft | 3 kts | 306° |
| 2026-05-08 03:55 | 19.09372 | 72.87325 | 41 ft | 2 kts | 306° |
| 2026-05-08 03:55 | 19.09387 | 72.87303 | 41 ft | 4 kts | 305° |
| 2026-05-08 03:55 | 19.09394 | 72.87292 | 41 ft | 0 kts | 307° |